Time;durP1;ratioP1;P1;durP2;ratioP2;P2;SDS_P1;SDS_P2;PMS_P1;PMS_P2;Temp;Humidity;BMP_temperature;BMP_pressure;BME280_temperature;BME280_humidity;BME280_pressure;Samples;Min_cycle;Max_cycle;Signal;HPM_P1;HPM_P2
2022/06/03 00:01:59;;;;;;;14.48;4.50;;;12.20;99.90;;;;;;5070534;28;20036;-78
2022/06/03 00:04:50;;;;;;;7.25;3.72;;;12.20;99.90;;;;;;5071015;28;20451;-76
2022/06/03 00:07:34;;;;;;;6.00;3.80;;;12.20;99.90;;;;;;5054333;28;20048;-77
2022/06/03 00:10:25;;;;;;;7.80;3.65;;;12.20;99.90;;;;;;5070815;28;20067;-78
2022/06/03 00:13:06;;;;;;;7.88;4.00;;;12.10;99.90;;;;;;5054212;28;20093;-77
2022/06/03 00:15:41;;;;;;;8.85;4.28;;;12.10;99.90;;;;;;5070989;28;20039;-78
2022/06/03 00:18:48;;;;;;;8.73;3.75;;;12.20;99.90;;;;;;5070834;28;20046;-77
2022/06/03 00:21:37;;;;;;;7.80;4.20;;;12.20;99.90;;;;;;4993336;28;20045;-77
2022/06/03 00:24:39;;;;;;;9.50;4.40;;;12.20;99.90;;;;;;4993698;28;20128;-77
2022/06/03 00:27:27;;;;;;;8.60;4.20;;;12.10;99.90;;;;;;5062197;28;20056;-77
2022/06/03 00:30:03;;;;;;;8.98;5.35;;;12.10;99.90;;;;;;5070090;28;20040;-77
2022/06/03 00:33:02;;;;;;;8.98;5.38;;;12.10;99.90;;;;;;5070610;28;20125;-78
2022/06/03 00:35:57;;;;;;;11.38;6.68;;;12.10;99.90;;;;;;5070670;28;20063;-77
2022/06/03 00:38:52;;;;;;;11.98;5.82;;;12.00;99.90;;;;;;5070627;28;20098;-77
2022/06/03 00:41:38;;;;;;;8.63;6.18;;;12.00;99.90;;;;;;5070347;28;20048;-77
2022/06/03 00:44:19;;;;;;;7.10;5.07;;;11.90;99.90;;;;;;5070519;28;20036;-77
2022/06/03 00:47:21;;;;;;;9.68;5.90;;;11.90;99.90;;;;;;5070547;28;20083;-77
2022/06/03 00:50:16;;;;;;;7.60;5.72;;;11.90;99.90;;;;;;5070698;28;20405;-78
2022/06/03 00:53:02;;;;;;;9.38;6.07;;;11.90;99.90;;;;;;5053601;28;20099;-77
2022/06/03 00:56:13;;;;;;;9.10;6.30;;;11.80;99.90;;;;;;5070713;28;20052;-77
2022/06/03 00:58:56;;;;;;;12.43;7.43;;;11.90;99.90;;;;;;5066515;28;20058;-77
2022/06/03 01:01:25;;;;;;;9.55;6.82;;;11.90;99.90;;;;;;5069997;28;20052;-77
2022/06/03 01:04:08;;;;;;;14.95;6.50;;;11.80;99.90;;;;;;5070315;28;20051;-75
2022/06/03 01:06:50;;;;;;;9.65;8.05;;;11.80;99.90;;;;;;5053841;28;20048;-75
2022/06/03 01:09:37;;;;;;;10.20;6.72;;;11.70;99.90;;;;;;5070236;28;20041;-76
2022/06/03 01:12:15;;;;;;;9.13;6.05;;;11.70;99.90;;;;;;5071172;28;20084;-75
2022/06/03 01:15:12;;;;;;;7.90;5.95;;;11.70;99.90;;;;;;5075626;28;20045;-75
2022/06/03 01:17:49;;;;;;;11.65;6.65;;;11.70;99.90;;;;;;5074207;28;20102;-75
2022/06/03 01:20:23;;;;;;;9.48;5.90;;;11.70;99.90;;;;;;5074099;28;20399;-75
2022/06/03 01:22:58;;;;;;;8.77;6.00;;;11.60;99.90;;;;;;5074128;28;20048;-77
2022/06/03 01:26:05;;;;;;;7.15;5.93;;;11.60;99.90;;;;;;5074133;28;20048;-77
2022/06/03 01:28:48;;;;;;;9.07;5.80;;;11.70;99.90;;;;;;5018972;28;20110;-77
2022/06/03 01:31:45;;;;;;;7.00;5.70;;;11.70;99.90;;;;;;5056883;28;20133;-77
2022/06/03 01:34:23;;;;;;;8.82;6.78;;;11.70;99.90;;;;;;5057137;28;20044;-77
2022/06/03 01:37:25;;;;;;;9.60;5.90;;;11.60;99.90;;;;;;5075107;28;20067;-77
2022/06/03 01:39:50;;;;;;;11.38;5.97;;;11.50;99.90;;;;;;5073663;28;20119;-78
2022/06/03 01:42:16;;;;;;;10.85;5.85;;;11.50;99.90;;;;;;5073435;28;20123;-77
2022/06/03 01:45:10;;;;;;;7.82;5.72;;;11.40;99.90;;;;;;5074806;28;20565;-77
2022/06/03 01:47:45;;;;;;;9.77;5.85;;;11.40;99.90;;;;;;5073720;28;20048;-77
2022/06/03 01:50:33;;;;;;;9.85;6.82;;;11.30;99.90;;;;;;5073263;28;20048;-77
2022/06/03 01:53:29;;;;;;;8.52;5.82;;;11.30;99.90;;;;;;5073694;28;20045;-77
2022/06/03 01:56:09;;;;;;;6.82;5.63;;;11.30;99.90;;;;;;5073467;28;20064;-77
2022/06/03 01:58:56;;;;;;;8.00;6.28;;;11.20;99.90;;;;;;5073407;28;20044;-78
2022/06/03 02:01:33;;;;;;;11.75;5.57;;;11.20;99.90;;;;;;5073220;28;20401;-77
2022/06/03 02:04:44;;;;;;;8.85;5.65;;;11.20;99.90;;;;;;5073299;28;20093;-77
2022/06/03 02:07:47;;;;;;;9.57;6.18;;;11.10;99.90;;;;;;5073607;28;20080;-77
2022/06/03 02:10:35;;;;;;;8.15;6.10;;;11.10;99.90;;;;;;5072905;28;20049;-77
2022/06/03 02:13:22;;;;;;;7.28;5.53;;;11.00;99.90;;;;;;5073399;28;20071;-77
2022/06/03 02:16:30;;;;;;;6.63;5.75;;;11.00;99.90;;;;;;5073336;28;20565;-77
2022/06/03 02:19:05;;;;;;;10.25;5.65;;;10.90;99.90;;;;;;5029303;28;20444;-77
2022/06/03 02:22:11;;;;;;;8.23;6.63;;;10.90;99.90;;;;;;5056312;28;20402;-76
2022/06/03 02:24:51;;;;;;;10.95;6.45;;;10.90;99.90;;;;;;5072805;28;20037;-77
2022/06/03 02:27:51;;;;;;;11.20;6.43;;;10.90;99.90;;;;;;5072986;28;20040;-76
2022/06/03 02:30:29;;;;;;;9.00;5.85;;;10.90;99.90;;;;;;5056039;28;20048;-76
2022/06/03 02:33:18;;;;;;;9.15;6.30;;;10.80;99.90;;;;;;5056062;28;20091;-77
2022/06/03 02:35:46;;;;;;;10.00;6.35;;;10.80;99.90;;;;;;5072833;28;20033;-77
2022/06/03 02:38:30;;;;;;;10.68;6.45;;;10.80;99.90;;;;;;5056051;28;20494;-77
2022/06/03 02:41:14;;;;;;;8.25;6.32;;;10.60;99.90;;;;;;5072094;28;20044;-76
2022/06/03 02:44:01;;;;;;;9.52;7.18;;;10.60;99.90;;;;;;5072922;28;20048;-76
2022/06/03 02:46:54;;;;;;;14.38;7.28;;;10.60;99.90;;;;;;5072558;28;20401;-77
2022/06/03 02:49:37;;;;;;;16.35;7.70;;;10.60;99.90;;;;;;5072489;28;20040;-76
2022/06/03 02:52:36;;;;;;;8.18;6.47;;;10.60;99.90;;;;;;5072098;28;20169;-77
2022/06/03 02:55:30;;;;;;;8.48;6.30;;;10.60;99.90;;;;;;5072414;28;20048;-78
2022/06/03 02:58:05;;;;;;;9.27;6.35;;;10.50;99.90;;;;;;5072620;28;20394;-76
2022/06/03 03:00:52;;;;;;;9.30;6.20;;;10.50;99.90;;;;;;5071961;28;20109;-77
2022/06/03 03:03:43;;;;;;;12.48;7.72;;;10.50;99.90;;;;;;5072249;28;20127;-76
2022/06/03 03:06:38;;;;;;;10.07;6.30;;;10.50;99.90;;;;;;5072384;28;20048;-76
2022/06/03 03:09:21;;;;;;;9.27;6.55;;;10.50;99.90;;;;;;5072364;28;20032;-77
2022/06/03 03:12:11;;;;;;;9.43;6.65;;;10.50;99.90;;;;;;5071639;28;20121;-77
2022/06/03 03:15:05;;;;;;;8.23;6.28;;;10.50;99.90;;;;;;5072248;28;20391;-76
2022/06/03 03:18:00;;;;;;;17.15;6.75;;;10.50;99.90;;;;;;5071869;28;20041;-77
2022/06/03 03:21:05;;;;;;;10.45;6.53;;;10.40;99.90;;;;;;5071380;28;20051;-76
2022/06/03 03:23:47;;;;;;;11.43;7.55;;;10.40;99.90;;;;;;5071212;28;20080;-76
2022/06/03 03:26:19;;;;;;;11.18;7.05;;;10.40;99.90;;;;;;5055280;28;20044;-76
2022/06/03 03:29:21;;;;;;;8.15;6.65;;;10.50;99.90;;;;;;5071896;28;20044;-77
2022/06/03 03:32:21;;;;;;;10.07;7.53;;;10.40;99.90;;;;;;5071237;28;20075;-76
2022/06/03 03:35:18;;;;;;;9.82;7.90;;;10.40;99.90;;;;;;5071002;28;20037;-76
2022/06/03 03:38:14;;;;;;;13.13;6.93;;;10.40;99.90;;;;;;5071807;28;20047;-76
2022/06/03 03:41:07;;;;;;;10.95;7.53;;;10.40;99.90;;;;;;5054283;28;20082;-77
2022/06/03 03:43:52;;;;;;;13.18;7.05;;;10.40;99.90;;;;;;5071441;28;20075;-77
2022/06/03 03:46:39;;;;;;;12.98;7.70;;;10.30;99.90;;;;;;5054958;28;20548;-77
2022/06/03 03:49:26;;;;;;;10.82;7.00;;;10.30;99.90;;;;;;5071371;28;20048;-77
2022/06/03 03:51:57;;;;;;;11.57;8.00;;;10.30;99.90;;;;;;5070785;28;20044;-78
2022/06/03 03:54:43;;;;;;;14.77;7.40;;;10.30;99.90;;;;;;5054550;28;20044;-76
2022/06/03 03:57:33;;;;;;;11.85;8.23;;;10.40;99.90;;;;;;5054548;28;20521;-77
2022/06/03 04:00:07;;;;;;;10.50;7.70;;;10.40;99.90;;;;;;5071057;28;20063;-76
2022/06/03 04:02:51;;;;;;;13.68;7.60;;;10.50;99.90;;;;;;5071351;28;20054;-77
2022/06/03 04:05:31;;;;;;;;;;;10.40;99.90;;;;;;5071444;28;20044;-77
2022/06/03 04:08:29;;;;;;;11.02;6.93;;;10.50;99.90;;;;;;5071024;28;20401;-77
2022/06/03 04:11:19;;;;;;;13.48;8.38;;;10.50;99.90;;;;;;5070805;28;20374;-77
2022/06/03 04:14:02;;;;;;;11.85;7.50;;;10.50;99.90;;;;;;5071181;28;20162;-76
2022/06/03 04:17:05;;;;;;;9.30;7.22;;;10.60;99.90;;;;;;5070934;28;20041;-77
2022/06/03 04:19:53;;;;;;;9.80;6.57;;;10.70;99.90;;;;;;5072234;28;20067;-77
2022/06/03 04:22:34;;;;;;;11.10;7.32;;;10.70;99.90;;;;;;5070889;28;20040;-77
2022/06/03 04:25:16;;;;;;;10.02;6.75;;;10.90;99.90;;;;;;5070933;28;20098;-77
2022/06/03 04:27:50;;;;;;;13.25;6.60;;;10.90;99.90;;;;;;5070747;28;20098;-76
2022/06/03 04:30:19;;;;;;;9.23;7.07;;;11.00;99.90;;;;;;5070189;28;20090;-76
2022/06/03 04:33:06;;;;;;;8.95;6.32;;;11.10;99.90;;;;;;5064461;28;20119;-76
2022/06/03 04:36:20;;;;;;;8.75;5.85;;;11.20;99.90;;;;;;5070424;28;20041;-77
2022/06/03 04:38:52;;;;;;;11.80;5.70;;;11.20;99.90;;;;;;5070546;28;20044;-77
2022/06/03 04:41:38;;;;;;;12.88;7.78;;;11.20;99.90;;;;;;5069983;28;20231;-76
2022/06/03 04:44:23;;;;;;;11.07;6.20;;;11.30;99.90;;;;;;5070728;28;20067;-76
2022/06/03 04:46:57;;;;;;;11.05;6.57;;;11.40;99.90;;;;;;5070666;28;20138;-76
2022/06/03 04:49:38;;;;;;;10.68;6.50;;;11.60;99.90;;;;;;5070441;28;20036;-77
2022/06/03 04:52:23;;;;;;;9.57;6.68;;;11.70;99.90;;;;;;5069991;28;20497;-76
2022/06/03 04:55:23;;;;;;;9.02;6.60;;;11.90;99.90;;;;;;5070422;28;20593;-76
2022/06/03 04:58:11;;;;;;;10.95;5.93;;;12.20;99.90;;;;;;5070355;28;20553;-77
2022/06/03 05:01:28;;;;;;;10.20;5.80;;;12.40;99.90;;;;;;5069878;28;20041;-77
2022/06/03 05:04:15;;;;;;;9.98;5.43;;;12.70;99.90;;;;;;5030865;28;20055;-77
2022/06/03 05:07:18;;;;;;;8.88;5.82;;;13.00;99.90;;;;;;5070217;28;20048;-76
2022/06/03 05:10:37;;;;;;;9.63;5.88;;;13.20;99.90;;;;;;5070391;28;20040;-77
2022/06/03 05:13:18;;;;;;;6.65;5.03;;;13.50;99.90;;;;;;5069914;28;20391;-76
2022/06/03 05:16:06;;;;;;;8.98;5.10;;;13.80;99.90;;;;;;5070262;28;20106;-76
2022/06/03 05:18:50;;;;;;;13.93;6.10;;;14.00;99.90;;;;;;5070376;28;20040;-76
2022/06/03 05:21:55;;;;;;;7.15;5.75;;;14.20;99.90;;;;;;5069753;28;20037;-77
2022/06/03 05:24:40;;;;;;;7.45;5.25;;;14.40;99.90;;;;;;5070422;28;20036;-77
2022/06/03 05:27:23;;;;;;;7.75;4.97;;;14.60;99.90;;;;;;5070072;28;20514;-76
2022/06/03 05:30:18;;;;;;;9.90;5.97;;;14.80;99.90;;;;;;5070021;28;20043;-76
2022/06/03 05:33:11;;;;;;;7.85;5.70;;;15.00;99.90;;;;;;5070086;28;20056;-76
2022/06/03 05:36:01;;;;;;;7.63;5.28;;;15.20;99.90;;;;;;5070275;28;20040;-76
2022/06/03 05:38:45;;;;;;;8.60;5.35;;;15.30;99.90;;;;;;5069952;28;20069;-76
2022/06/03 05:44:35;;;;;;;7.13;3.88;;;15.50;99.90;;;;;;5069787;28;20044;-76
2022/06/03 05:47:19;;;;;;;8.25;4.50;;;15.30;99.90;;;;;;5069895;28;20036;-77
2022/06/03 05:49:59;;;;;;;7.18;4.38;;;15.30;99.90;;;;;;5070104;28;20071;-76
2022/06/03 05:52:31;;;;;;;4.22;3.83;;;15.50;99.90;;;;;;5069773;28;20047;-77
2022/06/03 05:55:21;;;;;;;6.45;3.53;;;15.70;99.90;;;;;;5070022;28;20036;-77
2022/06/03 05:58:13;;;;;;;3.50;3.20;;;15.90;99.90;;;;;;5070517;28;20128;-77
2022/06/03 06:00:55;;;;;;;8.27;2.83;;;15.80;99.20;;;;;;5052510;28;20101;-77
2022/06/03 06:03:30;;;;;;;3.47;2.70;;;16.20;99.20;;;;;;5073399;28;20048;-77
2022/06/03 06:05:58;;;;;;;4.68;2.70;;;16.30;99.10;;;;;;5073538;28;20075;-76
2022/06/03 06:08:24;;;;;;;6.13;3.15;;;16.40;98.00;;;;;;5073121;28;20486;-77
2022/06/03 06:11:13;;;;;;;4.80;2.40;;;16.50;97.90;;;;;;5056239;28;20089;-77
2022/06/03 06:13:56;;;;;;;4.05;2.40;;;16.70;96.50;;;;;;5073224;28;20451;-78
2022/06/03 06:16:30;;;;;;;6.07;2.53;;;17.00;95.70;;;;;;5073431;28;20052;-74
2022/06/03 06:19:04;;;;;;;3.50;1.63;;;17.30;95.80;;;;;;5073255;28;20083;-76
2022/06/03 06:21:48;;;;;;;5.80;2.00;;;17.30;93.60;;;;;;5072666;28;20051;-75
2022/06/03 06:24:41;;;;;;;5.13;2.10;;;17.20;90.90;;;;;;5073046;28;20044;-75
2022/06/03 06:27:16;;;;;;;4.53;1.40;;;17.40;89.20;;;;;;5072837;28;20498;-75
2022/06/03 06:30:17;;;;;;;2.50;1.45;;;17.50;86.50;;;;;;5073037;28;20045;-76
2022/06/03 06:32:42;;;;;;;3.08;1.45;;;17.50;83.80;;;;;;5074245;28;20056;-76
2022/06/03 06:35:46;;;;;;;2.75;1.50;;;17.50;84.60;;;;;;5072677;28;20044;-75
2022/06/03 06:38:30;;;;;;;9.10;2.40;;;17.70;84.90;;;;;;5072693;28;20037;-76
2022/06/03 06:41:13;;;;;;;3.08;1.85;;;18.00;84.90;;;;;;5072104;28;20478;-76
2022/06/03 06:43:48;;;;;;;4.55;1.67;;;18.00;82.70;;;;;;5072845;28;20128;-75
2022/06/03 06:46:36;;;;;;;4.05;2.05;;;18.30;83.30;;;;;;5072952;28;20507;-76
2022/06/03 06:49:36;;;;;;;2.70;1.48;;;18.50;81.40;;;;;;5072465;28;20056;-76
2022/06/03 06:52:19;;;;;;;3.60;1.70;;;18.50;80.00;;;;;;5065740;28;20045;-76
2022/06/03 06:55:12;;;;;;;3.08;1.60;;;18.60;81.00;;;;;;5072786;28;20049;-76
2022/06/03 06:57:49;;;;;;;3.25;1.67;;;18.60;78.00;;;;;;5072648;28;20040;-76
2022/06/03 07:00:25;;;;;;;2.67;1.85;;;18.90;75.60;;;;;;5071979;28;20502;-76
2022/06/03 07:03:24;;;;;;;3.92;1.40;;;18.80;72.90;;;;;;5072562;28;20494;-76
2022/06/03 07:06:02;;;;;;;2.83;1.13;;;18.80;72.00;;;;;;5073464;28;20071;-76
2022/06/03 07:08:32;;;;;;;2.75;1.23;;;18.90;72.30;;;;;;5072242;28;20036;-76
2022/06/03 07:11:07;;;;;;;3.35;1.40;;;18.90;73.00;;;;;;5070817;28;20051;-76
2022/06/03 07:13:47;;;;;;;3.75;1.55;;;18.90;71.90;;;;;;5072069;28;20066;-76
2022/06/03 07:19:47;;;;;;;4.80;1.80;;;19.00;69.70;;;;;;5072032;28;20037;-76
2022/06/03 07:22:30;;;;;;;4.88;1.10;;;19.30;70.10;;;;;;5071406;28;20044;-76
2022/06/03 07:25:23;;;;;;;2.00;1.10;;;19.50;66.60;;;;;;5071856;28;20498;-76
2022/06/03 07:28:18;;;;;;;4.25;1.65;;;19.50;64.40;;;;;;5073087;28;20111;-76
2022/06/03 07:31:13;;;;;;;6.45;1.25;;;19.70;64.80;;;;;;5071288;28;20063;-76
2022/06/03 07:34:11;;;;;;;4.40;1.80;;;19.70;63.80;;;;;;5071939;28;20453;-76
2022/06/03 07:36:49;;;;;;;4.05;1.58;;;19.80;63.10;;;;;;5071841;28;20036;-76
2022/06/03 07:39:48;;;;;;;2.28;1.48;;;19.80;63.80;;;;;;5071499;28;20072;-76
2022/06/03 07:42:33;;;;;;;4.10;1.63;;;20.00;63.40;;;;;;5054499;28;20044;-76
2022/06/03 07:45:23;;;;;;;3.55;1.20;;;19.90;62.40;;;;;;5071376;28;20044;-75
2022/06/03 07:47:50;;;;;;;2.55;1.40;;;19.70;62.40;;;;;;5071683;28;20044;-76
2022/06/03 07:50:19;;;;;;;3.42;1.50;;;19.90;64.20;;;;;;5070981;28;20076;-76
2022/06/03 07:53:07;;;;;;;3.85;1.40;;;19.90;63.70;;;;;;5071289;28;20041;-76
2022/06/03 07:55:35;;;;;;;2.90;1.20;;;19.80;62.40;;;;;;5071571;28;20040;-76
2022/06/03 07:58:09;;;;;;;5.82;1.70;;;19.80;63.00;;;;;;5071424;28;20397;-76
2022/06/03 08:00:39;;;;;;;4.93;2.15;;;19.90;62.00;;;;;;5070894;28;20047;-76
2022/06/03 08:03:14;;;;;;;3.15;1.98;;;20.20;63.10;;;;;;5071453;28;20046;-78
2022/06/03 08:05:43;;;;;;;3.58;1.88;;;20.30;64.30;;;;;;5072253;28;20045;-76
2022/06/03 08:11:00;;;;;;;4.13;2.13;;;20.30;63.70;;;;;;5070517;28;20044;-77
2022/06/03 08:13:41;;;;;;;2.40;2.10;;;20.60;64.70;;;;;;5070957;28;20043;-77
2022/06/03 08:16:34;;;;;;;3.22;1.58;;;20.70;63.60;;;;;;5071252;28;20044;-76
2022/06/03 08:19:10;;;;;;;4.10;1.83;;;20.90;63.80;;;;;;5070970;28;20068;-76
2022/06/03 08:22:14;;;;;;;4.85;2.00;;;21.10;64.30;;;;;;5070200;28;20110;-77
2022/06/03 08:24:47;;;;;;;3.22;1.75;;;21.10;61.80;;;;;;4993821;28;20045;-74
2022/06/03 08:27:20;;;;;;;8.05;2.17;;;21.30;63.70;;;;;;5060087;28;20506;-76
2022/06/03 08:29:55;;;;;;;2.17;1.70;;;21.30;61.10;;;;;;5071027;28;20102;-76
2022/06/03 08:32:37;;;;;;;3.20;1.45;;;21.20;60.90;;;;;;5070522;28;20044;-76
2022/06/03 08:35:13;;;;;;;2.13;1.55;;;21.00;60.30;;;;;;5071861;28;20036;-77
2022/06/03 08:38:10;;;;;;;1.98;1.42;;;21.00;59.70;;;;;;5053924;28;20497;-77
2022/06/03 08:41:06;;;;;;;2.60;1.50;;;21.10;58.50;;;;;;5070414;28;20040;-76
2022/06/03 08:43:37;;;;;;;3.60;1.80;;;21.00;58.10;;;;;;5070540;28;20406;-76
2022/06/03 08:46:23;;;;;;;3.67;1.30;;;21.30;59.30;;;;;;5071961;28;20028;-77
2022/06/03 08:48:53;;;;;;;3.70;2.00;;;21.40;59.00;;;;;;5070392;28;20118;-77
2022/06/03 08:51:26;;;;;;;3.00;1.90;;;21.50;58.00;;;;;;5070171;28;20033;-76
2022/06/03 08:54:19;;;;;;;2.35;1.85;;;21.40;58.00;;;;;;5071674;28;20090;-77
2022/06/03 08:56:47;;;;;;;2.58;1.70;;;21.40;57.90;;;;;;5071746;28;20167;-76
2022/06/03 08:59:21;;;;;;;4.15;1.80;;;21.40;57.90;;;;;;5070297;28;20036;-76
2022/06/03 09:02:06;;;;;;;3.05;1.60;;;21.50;58.80;;;;;;5070021;28;20041;-77
2022/06/03 09:04:46;;;;;;;5.47;1.75;;;21.60;57.70;;;;;;5070257;28;20197;-77
2022/06/03 09:07:27;;;;;;;5.20;1.45;;;21.80;58.60;;;;;;5070550;28;20520;-76
2022/06/03 09:10:16;;;;;;;4.15;1.50;;;21.80;56.70;;;;;;5070120;28;20051;-78
2022/06/03 09:13:05;;;;;;;3.90;1.77;;;21.90;57.20;;;;;;5053322;28;20045;-77
2022/06/03 09:15:38;;;;;;;3.45;1.88;;;21.80;56.90;;;;;;5070250;28;20051;-76
2022/06/03 09:18:28;;;;;;;4.25;1.70;;;21.80;55.70;;;;;;5070372;28;20072;-77
2022/06/03 09:21:03;;;;;;;4.28;1.58;;;22.00;55.80;;;;;;5053071;28;20059;-76
2022/06/03 09:23:34;;;;;;;3.00;1.80;;;21.90;55.00;;;;;;5070166;28;20032;-76
2022/06/03 09:26:00;;;;;;;3.65;1.42;;;21.80;54.70;;;;;;5070042;28;20040;-76
2022/06/03 09:28:35;;;;;;;3.15;1.40;;;21.80;56.40;;;;;;5069632;28;20116;-77
2022/06/03 09:31:05;;;;;;;4.53;2.00;;;21.90;56.40;;;;;;5069622;28;20052;-76
2022/06/03 09:33:33;;;;;;;2.67;1.98;;;21.80;56.20;;;;;;5071884;28;20048;-76
2022/06/03 09:36:03;;;;;;;6.82;2.25;;;21.90;55.90;;;;;;5073736;28;20075;-76
2022/06/03 09:38:42;;;;;;;2.08;1.30;;;21.90;54.90;;;;;;5074519;28;20044;-77
2022/06/03 09:41:09;;;;;;;1.83;1.40;;;21.80;55.40;;;;;;5073525;28;20432;-77
2022/06/03 09:43:38;;;;;;;5.80;1.60;;;21.70;54.90;;;;;;5073776;28;20153;-77
2022/06/03 09:46:08;;;;;;;3.53;2.13;;;21.60;55.30;;;;;;5073868;28;20041;-77
2022/06/03 09:48:36;;;;;;;2.17;1.60;;;21.80;55.30;;;;;;5073628;28;20047;-77
2022/06/03 09:51:14;;;;;;;3.17;1.73;;;21.60;55.10;;;;;;5073211;28;20157;-77
2022/06/03 09:53:43;;;;;;;4.13;1.80;;;21.60;54.60;;;;;;5073673;28;20370;-77
2022/06/03 09:56:21;;;;;;;2.72;2.00;;;21.50;55.00;;;;;;5073323;28;20036;-77
2022/06/03 09:58:49;;;;;;;2.88;1.77;;;21.30;55.40;;;;;;5073781;28;20032;-76
2022/06/03 10:01:15;;;;;;;2.65;1.80;;;21.40;55.70;;;;;;5072803;28;20494;-76
2022/06/03 10:03:40;;;;;;;2.63;1.70;;;21.40;56.50;;;;;;5073612;28;20097;-75
2022/06/03 10:06:42;;;;;;;3.28;1.67;;;21.30;56.20;;;;;;5073222;28;20535;-77
2022/06/03 10:14:33;;;;;;;4.70;1.90;;;21.40;57.50;;;;;;5073155;28;20413;-77
2022/06/03 10:16:59;;;;;;;2.33;1.70;;;21.70;58.00;;;;;;5073063;28;20028;-76
2022/06/03 10:19:25;;;;;;;2.20;1.60;;;21.70;57.50;;;;;;5074247;28;20094;-77
2022/06/03 10:21:53;;;;;;;4.20;1.98;;;21.50;56.80;;;;;;5072631;28;20062;-77
2022/06/03 10:24:23;;;;;;;3.78;2.10;;;21.40;56.50;;;;;;5074434;28;20119;-76
2022/06/03 10:26:52;;;;;;;2.28;1.50;;;21.40;56.30;;;;;;5071540;28;20048;-77
2022/06/03 10:29:23;;;;;;;2.45;1.58;;;21.30;56.20;;;;;;5062541;28;20068;-76
2022/06/03 10:32:01;;;;;;;4.32;1.92;;;21.40;56.40;;;;;;5072541;28;20052;-76
2022/06/03 10:34:34;;;;;;;3.33;2.17;;;21.20;56.50;;;;;;5072913;28;20044;-77
2022/06/03 10:37:00;;;;;;;2.85;1.80;;;21.00;57.10;;;;;;5072873;28;20077;-76
2022/06/03 10:39:27;;;;;;;3.38;2.03;;;20.90;56.30;;;;;;5072260;28;20039;-76
2022/06/03 10:41:58;;;;;;;4.05;2.20;;;20.90;56.80;;;;;;5071880;28;20123;-77
2022/06/03 10:44:29;;;;;;;3.90;1.70;;;20.90;56.70;;;;;;5072017;28;20437;-75
2022/06/03 10:47:02;;;;;;;3.40;1.70;;;20.90;57.80;;;;;;5072700;28;20494;-75
2022/06/03 10:49:29;;;;;;;4.75;2.10;;;20.90;58.50;;;;;;5055916;28;20041;-76
2022/06/03 11:03:06;;;;;;;5.30;1.92;;;20.90;57.50;;;;;;5072244;28;20041;-75
2022/06/03 11:05:35;;;;;;;6.38;2.60;;;21.10;58.40;;;;;;5072261;28;20124;-76
2022/06/03 11:08:10;;;;;;;4.32;2.40;;;21.00;57.60;;;;;;5055398;28;20041;-75
2022/06/03 11:10:43;;;;;;;5.88;2.53;;;20.90;58.20;;;;;;5071786;28;20131;-75
2022/06/03 11:13:11;;;;;;;6.35;2.70;;;21.10;59.20;;;;;;5072071;28;20044;-76
2022/06/03 11:15:43;;;;;;;4.45;2.20;;;21.00;57.90;;;;;;5072165;28;20119;-75
2022/06/03 11:18:31;;;;;;;5.43;2.38;;;20.90;57.90;;;;;;5072029;28;20040;-75
2022/06/03 11:21:17;;;;;;;7.15;2.42;;;20.90;59.00;;;;;;5071731;28;20158;-76
2022/06/03 11:23:43;;;;;;;5.72;2.40;;;20.90;57.70;;;;;;5071891;28;20081;-75
2022/06/03 11:26:09;;;;;;;3.15;2.30;;;20.80;58.20;;;;;;5071946;28;20395;-76
2022/06/03 11:28:58;;;;;;;4.57;2.40;;;20.90;57.60;;;;;;5073245;28;20039;-75
2022/06/03 11:31:29;;;;;;;4.38;2.38;;;20.90;57.60;;;;;;5070812;28;20528;-76
2022/06/03 11:34:04;;;;;;;6.82;2.25;;;20.90;58.00;;;;;;5055054;28;20040;-74
2022/06/03 11:36:38;;;;;;;3.47;2.03;;;20.80;58.00;;;;;;5071332;28;20033;-75
2022/06/03 11:39:26;;;;;;;2.60;2.10;;;20.90;58.10;;;;;;5071861;28;20040;-76
2022/06/03 11:42:05;;;;;;;4.13;2.08;;;20.90;57.40;;;;;;5071408;28;20131;-76
2022/06/03 11:44:49;;;;;;;5.18;2.40;;;21.00;58.10;;;;;;5071436;28;20048;-76
2022/06/03 11:47:40;;;;;;;3.08;1.60;;;20.80;57.30;;;;;;5055091;28;20036;-74
2022/06/03 11:50:08;;;;;;;5.45;2.13;;;20.80;57.30;;;;;;5071116;28;20076;-75
2022/06/03 11:52:34;;;;;;;2.90;2.03;;;20.80;57.10;;;;;;5071255;28;20040;-75
2022/06/03 11:54:59;;;;;;;3.53;2.28;;;20.90;57.20;;;;;;5071111;28;20120;-75
2022/06/03 11:57:26;;;;;;;5.40;2.40;;;21.00;57.60;;;;;;5070783;28;20441;-70
2022/06/03 12:00:09;;;;;;;3.78;2.58;;;21.20;57.90;;;;;;5072509;28;20036;-74
2022/06/03 12:02:41;;;;;;;5.20;2.15;;;20.90;57.10;;;;;;5071133;28;20043;-75
2022/06/03 12:05:18;;;;;;;3.10;2.03;;;20.90;58.00;;;;;;5071370;28;20127;-74
2022/06/03 12:07:54;;;;;;;2.40;2.00;;;20.90;58.00;;;;;;5072334;28;20086;-75
2022/06/03 12:10:42;;;;;;;6.13;2.08;;;21.00;57.50;;;;;;5070351;28;20040;-74
2022/06/03 12:13:17;;;;;;;3.63;2.20;;;21.10;57.80;;;;;;5069540;28;20090;-72
2022/06/03 12:15:58;;;;;;;2.45;1.80;;;21.10;56.80;;;;;;5068653;28;20506;-75
2022/06/03 12:18:34;;;;;;;3.60;2.20;;;21.10;56.70;;;;;;5068767;28;20417;-73
2022/06/03 12:21:06;;;;;;;2.30;1.90;;;21.00;56.70;;;;;;5062426;28;20506;-74
2022/06/03 12:23:48;;;;;;;3.90;1.80;;;20.80;56.90;;;;;;5072181;28;20032;-75
2022/06/03 12:26:27;;;;;;;2.78;1.70;;;20.90;57.70;;;;;;5070746;28;20067;-70
2022/06/03 12:28:59;;;;;;;3.03;1.85;;;21.10;57.10;;;;;;5071264;28;20093;-70
2022/06/03 12:31:46;;;;;;;3.57;2.13;;;21.20;57.00;;;;;;5071153;28;20429;-70
2022/06/03 12:34:27;;;;;;;4.93;2.00;;;21.10;56.00;;;;;;5071413;28;20047;-71
2022/06/03 12:37:01;;;;;;;6.68;2.40;;;20.90;56.50;;;;;;5071830;28;20090;-70
2022/06/03 12:39:54;;;;;;;5.50;2.00;;;20.80;56.40;;;;;;5071750;28;20483;-71
2022/06/03 12:42:29;;;;;;;2.65;2.17;;;20.90;56.00;;;;;;5071698;28;20044;-70
2022/06/03 12:44:57;;;;;;;5.47;1.77;;;20.90;56.80;;;;;;5071832;28;20055;-71
2022/06/03 12:47:23;;;;;;;3.17;1.98;;;20.80;57.20;;;;;;5071775;28;20042;-71
2022/06/03 12:49:53;;;;;;;4.40;1.38;;;21.00;55.90;;;;;;5071910;28;20127;-71
2022/06/03 12:52:22;;;;;;;2.78;2.10;;;21.00;55.60;;;;;;5071707;28;20044;-71
2022/06/03 12:54:50;;;;;;;3.95;1.60;;;21.00;56.30;;;;;;5071776;28;20071;-71
2022/06/03 12:57:48;;;;;;;3.83;2.60;;;21.20;56.10;;;;;;5070219;28;20036;-70
2022/06/03 13:00:24;;;;;;;2.65;1.50;;;21.10;54.60;;;;;;5071466;28;20174;-70
2022/06/03 13:03:07;;;;;;;1.88;1.30;;;21.30;53.80;;;;;;5071810;28;20044;-71
2022/06/03 13:05:42;;;;;;;3.13;1.80;;;21.20;54.30;;;;;;5071748;28;20036;-70
2022/06/03 13:08:10;;;;;;;1.70;1.40;;;21.00;54.40;;;;;;5073031;28;20491;-71
2022/06/03 13:11:13;;;;;;;2.15;1.55;;;21.00;54.00;;;;;;5074365;28;20047;-71
2022/06/03 13:14:02;;;;;;;2.00;1.17;;;21.30;53.90;;;;;;5075715;28;20056;-70
2022/06/03 13:16:35;;;;;;;2.90;1.48;;;21.20;53.60;;;;;;5067893;28;20059;-71
2022/06/03 13:19:17;;;;;;;5.30;1.90;;;21.10;53.10;;;;;;5075819;28;20055;-70
2022/06/03 13:21:58;;;;;;;3.72;1.30;;;20.60;53.30;;;;;;5075225;28;20043;-70
2022/06/03 13:24:26;;;;;;;2.25;1.50;;;20.70;53.60;;;;;;5075494;28;20206;-70
2022/06/03 13:27:20;;;;;;;3.15;1.55;;;20.80;53.40;;;;;;5075266;28;20032;-70
2022/06/03 13:29:52;;;;;;;2.92;1.45;;;21.00;54.00;;;;;;5074327;28;20032;-70
2022/06/03 13:32:46;;;;;;;3.67;2.08;;;21.10;53.20;;;;;;5075015;28;20501;-70
2022/06/03 13:35:20;;;;;;;1.98;1.20;;;21.30;52.70;;;;;;5068064;28;20410;-70
2022/06/03 13:37:50;;;;;;;2.45;1.20;;;21.50;52.40;;;;;;5073861;28;20064;-70
2022/06/03 13:40:25;;;;;;;2.30;1.15;;;21.50;52.90;;;;;;5074381;28;20039;-71
2022/06/03 13:42:59;;;;;;;3.17;1.48;;;21.60;51.40;;;;;;5072053;28;20121;-70
2022/06/03 13:45:52;;;;;;;3.33;1.13;;;21.70;50.90;;;;;;5075055;28;20044;-70
2022/06/03 13:48:31;;;;;;;2.28;1.27;;;21.80;50.40;;;;;;5074126;28;20040;-71
2022/06/03 13:51:17;;;;;;;1.30;1.05;;;21.70;50.80;;;;;;5074757;28;20036;-70
2022/06/03 13:53:53;;;;;;;2.53;1.10;;;21.80;50.10;;;;;;5074935;28;20043;-70
2022/06/03 13:56:24;;;;;;;2.50;1.20;;;21.70;53.30;;;;;;5074828;28;20048;-70
2022/06/03 13:58:50;;;;;;;2.65;1.50;;;21.80;53.10;;;;;;5075000;28;20040;-70
2022/06/03 14:01:25;;;;;;;4.00;1.33;;;21.50;56.20;;;;;;5074335;28;20481;-70
2022/06/03 14:04:14;;;;;;;2.22;1.30;;;21.30;56.90;;;;;;5074667;28;20513;-70
2022/06/03 14:06:46;;;;;;;5.32;1.15;;;21.40;57.70;;;;;;5074301;28;20563;-70
2022/06/03 14:09:49;;;;;;;4.78;1.10;;;21.40;58.10;;;;;;5074596;28;20052;-70
2022/06/03 14:12:30;;;;;;;3.28;1.38;;;21.20;58.70;;;;;;5063037;28;20173;-70
2022/06/03 14:15:22;;;;;;;3.30;0.93;;;20.70;59.10;;;;;;5073164;28;20051;-70
2022/06/03 14:17:54;;;;;;;3.92;0.85;;;21.00;59.60;;;;;;5073410;28;20040;-70
2022/06/03 14:20:43;;;;;;;3.20;1.08;;;21.00;59.00;;;;;;5073629;28;20040;-70
2022/06/03 14:23:33;;;;;;;3.05;1.10;;;20.90;59.50;;;;;;5073740;28;20080;-70
2022/06/03 14:26:05;;;;;;;3.65;1.48;;;20.60;59.90;;;;;;5074111;28;20055;-70
2022/06/03 14:28:39;;;;;;;2.25;1.00;;;20.70;59.10;;;;;;5074387;28;20032;-70